Terminal Aerodrome Forecast
Issued by NWS Wilmington, NC

Home | Current Version | Previous Version | Text Only | Print | Product List | Glossary On
Versions: 1 2 3 4 5 6 7 8 9 10 11 12 13 14
396
FTUS42 KILM 220520
TAFFLO
TAF
KFLO 220520Z 2206/2306 14004KT P6SM SCT250
     FM221300 10006KT P6SM SCT035
     FM221900 12010KT P6SM BKN100
     FM230000 13012KT P6SM OVC050
     FM230300 12007KT P6SM OVC025=

USA.gov is the U.S. government's official web portal to all federal, state and local government web resources and services.